sensor_id;sensor_type;location;lat;lon;timestamp;P1;durP1;ratioP1;P2;durP2;ratioP2
8319;SDS011;4197;42.130;24.746;2023-02-28T00:01:29;16.80;;;8.47;;
8319;SDS011;4197;42.130;24.746;2023-02-28T00:03:58;17.80;;;9.23;;
8319;SDS011;4197;42.130;24.746;2023-02-28T00:06:26;21.00;;;9.30;;
8319;SDS011;4197;42.130;24.746;2023-02-28T00:08:55;12.13;;;7.83;;
8319;SDS011;4197;42.130;24.746;2023-02-28T00:11:25;18.73;;;8.33;;
8319;SDS011;4197;42.130;24.746;2023-02-28T00:13:53;18.00;;;8.17;;
8319;SDS011;4197;42.130;24.746;2023-02-28T00:16:22;16.67;;;8.47;;
8319;SDS011;4197;42.130;24.746;2023-02-28T00:18:50;19.33;;;7.83;;
8319;SDS011;4197;42.130;24.746;2023-02-28T00:21:19;14.83;;;7.73;;
8319;SDS011;4197;42.130;24.746;2023-02-28T00:23:48;15.47;;;8.40;;
8319;SDS011;4197;42.130;24.746;2023-02-28T00:26:16;16.00;;;8.67;;
8319;SDS011;4197;42.130;24.746;2023-02-28T00:28:48;16.03;;;8.33;;
8319;SDS011;4197;42.130;24.746;2023-02-28T00:31:19;14.23;;;7.73;;
8319;SDS011;4197;42.130;24.746;2023-02-28T00:33:47;18.80;;;8.20;;
8319;SDS011;4197;42.130;24.746;2023-02-28T00:36:17;18.33;;;8.37;;
8319;SDS011;4197;42.130;24.746;2023-02-28T00:38:46;14.57;;;7.47;;
8319;SDS011;4197;42.130;24.746;2023-02-28T00:41:14;17.50;;;8.10;;
8319;SDS011;4197;42.130;24.746;2023-02-28T00:43:42;15.93;;;7.47;;
8319;SDS011;4197;42.130;24.746;2023-02-28T00:46:12;14.83;;;7.80;;
8319;SDS011;4197;42.130;24.746;2023-02-28T00:48:41;13.37;;;7.53;;
8319;SDS011;4197;42.130;24.746;2023-02-28T00:51:09;14.87;;;7.33;;
8319;SDS011;4197;42.130;24.746;2023-02-28T00:53:39;17.67;;;7.67;;
8319;SDS011;4197;42.130;24.746;2023-02-28T00:56:07;12.13;;;7.70;;
8319;SDS011;4197;42.130;24.746;2023-02-28T00:58:36;15.53;;;8.40;;
8319;SDS011;4197;42.130;24.746;2023-02-28T01:01:04;19.30;;;8.97;;
8319;SDS011;4197;42.130;24.746;2023-02-28T01:03:33;16.63;;;8.10;;
8319;SDS011;4197;42.130;24.746;2023-02-28T01:06:02;14.47;;;8.03;;
8319;SDS011;4197;42.130;24.746;2023-02-28T01:08:30;15.63;;;7.77;;
8319;SDS011;4197;42.130;24.746;2023-02-28T01:11:06;18.40;;;8.03;;
8319;SDS011;4197;42.130;24.746;2023-02-28T01:13:36;14.10;;;8.30;;
8319;SDS011;4197;42.130;24.746;2023-02-28T01:16:04;19.10;;;8.57;;
8319;SDS011;4197;42.130;24.746;2023-02-28T01:18:35;15.83;;;7.57;;
8319;SDS011;4197;42.130;24.746;2023-02-28T01:21:04;19.57;;;8.40;;
8319;SDS011;4197;42.130;24.746;2023-02-28T01:23:32;12.43;;;8.00;;
8319;SDS011;4197;42.130;24.746;2023-02-28T01:26:03;20.47;;;9.33;;
8319;SDS011;4197;42.130;24.746;2023-02-28T01:28:32;17.97;;;8.43;;
8319;SDS011;4197;42.130;24.746;2023-02-28T01:31:01;15.97;;;8.03;;
8319;SDS011;4197;42.130;24.746;2023-02-28T01:33:29;14.73;;;8.33;;
8319;SDS011;4197;42.130;24.746;2023-02-28T01:35:59;15.60;;;7.77;;
8319;SDS011;4197;42.130;24.746;2023-02-28T01:38:27;14.03;;;7.83;;
8319;SDS011;4197;42.130;24.746;2023-02-28T01:40:56;13.87;;;7.83;;
8319;SDS011;4197;42.130;24.746;2023-02-28T01:43:25;18.60;;;9.17;;
8319;SDS011;4197;42.130;24.746;2023-02-28T01:45:56;14.50;;;7.87;;
8319;SDS011;4197;42.130;24.746;2023-02-28T01:48:26;13.63;;;7.57;;
8319;SDS011;4197;42.130;24.746;2023-02-28T01:51:00;20.70;;;8.50;;
8319;SDS011;4197;42.130;24.746;2023-02-28T01:53:37;20.87;;;9.10;;
8319;SDS011;4197;42.130;24.746;2023-02-28T01:56:09;18.83;;;9.73;;
8319;SDS011;4197;42.130;24.746;2023-02-28T01:58:40;22.60;;;10.40;;
8319;SDS011;4197;42.130;24.746;2023-02-28T02:01:08;15.70;;;10.33;;
8319;SDS011;4197;42.130;24.746;2023-02-28T02:03:47;18.97;;;10.80;;
8319;SDS011;4197;42.130;24.746;2023-02-28T02:06:23;21.87;;;10.23;;
8319;SDS011;4197;42.130;24.746;2023-02-28T02:08:55;24.57;;;10.83;;
8319;SDS011;4197;42.130;24.746;2023-02-28T02:11:23;21.03;;;10.00;;
8319;SDS011;4197;42.130;24.746;2023-02-28T02:14:01;17.50;;;10.00;;
8319;SDS011;4197;42.130;24.746;2023-02-28T02:16:43;22.47;;;9.83;;
8319;SDS011;4197;42.130;24.746;2023-02-28T02:19:28;18.33;;;9.60;;
8319;SDS011;4197;42.130;24.746;2023-02-28T02:22:24;19.00;;;10.10;;
8319;SDS011;4197;42.130;24.746;2023-02-28T02:25:11;15.33;;;9.90;;
8319;SDS011;4197;42.130;24.746;2023-02-28T02:30:53;15.80;;;9.90;;
8319;SDS011;4197;42.130;24.746;2023-02-28T02:36:46;20.80;;;10.27;;
8319;SDS011;4197;42.130;24.746;2023-02-28T02:39:20;19.73;;;10.67;;
8319;SDS011;4197;42.130;24.746;2023-02-28T02:41:58;20.10;;;10.53;;
8319;SDS011;4197;42.130;24.746;2023-02-28T02:44:30;23.77;;;11.80;;
8319;SDS011;4197;42.130;24.746;2023-02-28T02:47:05;21.63;;;11.37;;
8319;SDS011;4197;42.130;24.746;2023-02-28T02:49:37;17.80;;;10.73;;
8319;SDS011;4197;42.130;24.746;2023-02-28T02:52:09;18.50;;;10.17;;
8319;SDS011;4197;42.130;24.746;2023-02-28T02:54:41;18.63;;;10.57;;
8319;SDS011;4197;42.130;24.746;2023-02-28T02:57:13;22.10;;;11.03;;
8319;SDS011;4197;42.130;24.746;2023-02-28T02:59:47;21.90;;;10.43;;
8319;SDS011;4197;42.130;24.746;2023-02-28T03:02:18;24.13;;;11.37;;
8319;SDS011;4197;42.130;24.746;2023-02-28T03:04:50;19.67;;;11.93;;
8319;SDS011;4197;42.130;24.746;2023-02-28T03:07:21;17.37;;;10.70;;
8319;SDS011;4197;42.130;24.746;2023-02-28T03:09:50;26.17;;;11.77;;
8319;SDS011;4197;42.130;24.746;2023-02-28T03:12:20;21.63;;;11.33;;
8319;SDS011;4197;42.130;24.746;2023-02-28T03:14:54;20.23;;;10.93;;
8319;SDS011;4197;42.130;24.746;2023-02-28T03:20:32;19.33;;;11.57;;
8319;SDS011;4197;42.130;24.746;2023-02-28T03:23:15;18.90;;;11.20;;
8319;SDS011;4197;42.130;24.746;2023-02-28T03:25:51;21.57;;;11.43;;
8319;SDS011;4197;42.130;24.746;2023-02-28T03:28:27;17.73;;;11.10;;
8319;SDS011;4197;42.130;24.746;2023-02-28T03:31:03;24.73;;;13.70;;
8319;SDS011;4197;42.130;24.746;2023-02-28T03:33:38;21.17;;;12.97;;
8319;SDS011;4197;42.130;24.746;2023-02-28T03:36:12;18.93;;;12.13;;
8319;SDS011;4197;42.130;24.746;2023-02-28T03:38:46;20.63;;;12.73;;
8319;SDS011;4197;42.130;24.746;2023-02-28T03:41:21;21.20;;;12.80;;
8319;SDS011;4197;42.130;24.746;2023-02-28T03:43:53;27.27;;;15.27;;
8319;SDS011;4197;42.130;24.746;2023-02-28T03:46:23;24.00;;;15.50;;
8319;SDS011;4197;42.130;24.746;2023-02-28T03:48:55;22.03;;;14.23;;
8319;SDS011;4197;42.130;24.746;2023-02-28T03:51:29;19.07;;;13.90;;
8319;SDS011;4197;42.130;24.746;2023-02-28T03:54:02;22.67;;;14.10;;
8319;SDS011;4197;42.130;24.746;2023-02-28T03:56:37;25.83;;;14.17;;
8319;SDS011;4197;42.130;24.746;2023-02-28T03:59:07;20.00;;;13.33;;
8319;SDS011;4197;42.130;24.746;2023-02-28T04:01:41;22.70;;;13.67;;
8319;SDS011;4197;42.130;24.746;2023-02-28T04:04:11;23.37;;;13.77;;
8319;SDS011;4197;42.130;24.746;2023-02-28T04:06:42;24.60;;;13.47;;
8319;SDS011;4197;42.130;24.746;2023-02-28T04:09:13;20.40;;;12.50;;
8319;SDS011;4197;42.130;24.746;2023-02-28T04:11:42;18.93;;;11.70;;
8319;SDS011;4197;42.130;24.746;2023-02-28T04:14:13;18.30;;;12.83;;
8319;SDS011;4197;42.130;24.746;2023-02-28T04:16:41;16.10;;;11.37;;
8319;SDS011;4197;42.130;24.746;2023-02-28T04:19:10;20.00;;;11.67;;
8319;SDS011;4197;42.130;24.746;2023-02-28T04:21:41;20.53;;;11.40;;
8319;SDS011;4197;42.130;24.746;2023-02-28T04:24:11;21.33;;;11.50;;
8319;SDS011;4197;42.130;24.746;2023-02-28T04:26:43;20.87;;;11.70;;
8319;SDS011;4197;42.130;24.746;2023-02-28T04:29:14;15.23;;;10.70;;
8319;SDS011;4197;42.130;24.746;2023-02-28T04:31:48;18.60;;;11.43;;
8319;SDS011;4197;42.130;24.746;2023-02-28T04:34:16;14.73;;;10.20;;
8319;SDS011;4197;42.130;24.746;2023-02-28T04:36:45;19.73;;;11.57;;
8319;SDS011;4197;42.130;24.746;2023-02-28T04:39:34;16.17;;;11.33;;
8319;SDS011;4197;42.130;24.746;2023-02-28T04:42:03;16.80;;;11.00;;
8319;SDS011;4197;42.130;24.746;2023-02-28T04:44:32;20.17;;;11.90;;
8319;SDS011;4197;42.130;24.746;2023-02-28T04:47:00;15.60;;;10.83;;
8319;SDS011;4197;42.130;24.746;2023-02-28T04:49:29;16.27;;;11.07;;
8319;SDS011;4197;42.130;24.746;2023-02-28T04:51:57;21.67;;;11.87;;
8319;SDS011;4197;42.130;24.746;2023-02-28T04:54:25;19.80;;;12.07;;
8319;SDS011;4197;42.130;24.746;2023-02-28T04:56:56;18.77;;;11.43;;
8319;SDS011;4197;42.130;24.746;2023-02-28T04:59:24;22.20;;;12.17;;
8319;SDS011;4197;42.130;24.746;2023-02-28T05:01:52;20.03;;;13.07;;
8319;SDS011;4197;42.130;24.746;2023-02-28T05:04:20;15.90;;;11.50;;
8319;SDS011;4197;42.130;24.746;2023-02-28T05:06:48;16.30;;;10.70;;
8319;SDS011;4197;42.130;24.746;2023-02-28T05:09:16;19.30;;;10.97;;
8319;SDS011;4197;42.130;24.746;2023-02-28T05:11:44;17.93;;;11.03;;
8319;SDS011;4197;42.130;24.746;2023-02-28T05:14:15;20.83;;;13.33;;
8319;SDS011;4197;42.130;24.746;2023-02-28T05:16:43;21.93;;;12.80;;
8319;SDS011;4197;42.130;24.746;2023-02-28T05:19:12;18.83;;;12.07;;
8319;SDS011;4197;42.130;24.746;2023-02-28T05:21:40;18.50;;;10.83;;
8319;SDS011;4197;42.130;24.746;2023-02-28T05:24:10;21.13;;;12.17;;
8319;SDS011;4197;42.130;24.746;2023-02-28T05:26:40;22.03;;;12.40;;
8319;SDS011;4197;42.130;24.746;2023-02-28T05:29:10;19.10;;;12.07;;
8319;SDS011;4197;42.130;24.746;2023-02-28T05:31:39;20.13;;;11.23;;
8319;SDS011;4197;42.130;24.746;2023-02-28T05:34:08;27.93;;;13.17;;
8319;SDS011;4197;42.130;24.746;2023-02-28T05:36:38;19.77;;;11.00;;
8319;SDS011;4197;42.130;24.746;2023-02-28T05:39:06;22.67;;;11.13;;
8319;SDS011;4197;42.130;24.746;2023-02-28T05:41:40;27.77;;;12.57;;
8319;SDS011;4197;42.130;24.746;2023-02-28T05:44:08;18.73;;;11.87;;
8319;SDS011;4197;42.130;24.746;2023-02-28T05:46:37;27.07;;;12.23;;
8319;SDS011;4197;42.130;24.746;2023-02-28T05:49:07;22.53;;;12.10;;
8319;SDS011;4197;42.130;24.746;2023-02-28T05:51:35;20.30;;;12.67;;
8319;SDS011;4197;42.130;24.746;2023-02-28T05:54:06;24.73;;;12.40;;
8319;SDS011;4197;42.130;24.746;2023-02-28T05:56:37;21.07;;;12.03;;
8319;SDS011;4197;42.130;24.746;2023-02-28T05:59:07;20.70;;;13.00;;
8319;SDS011;4197;42.130;24.746;2023-02-28T06:01:36;18.47;;;13.27;;
8319;SDS011;4197;42.130;24.746;2023-02-28T06:04:09;22.20;;;12.10;;
8319;SDS011;4197;42.130;24.746;2023-02-28T06:06:56;20.80;;;13.07;;
8319;SDS011;4197;42.130;24.746;2023-02-28T06:09:24;19.03;;;13.17;;
8319;SDS011;4197;42.130;24.746;2023-02-28T06:11:52;19.50;;;12.27;;
8319;SDS011;4197;42.130;24.746;2023-02-28T06:14:22;23.77;;;13.17;;
8319;SDS011;4197;42.130;24.746;2023-02-28T06:16:50;19.20;;;12.53;;
8319;SDS011;4197;42.130;24.746;2023-02-28T06:19:20;26.43;;;13.43;;
8319;SDS011;4197;42.130;24.746;2023-02-28T06:21:49;19.90;;;13.00;;
8319;SDS011;4197;42.130;24.746;2023-02-28T06:24:20;22.97;;;14.00;;
8319;SDS011;4197;42.130;24.746;2023-02-28T06:26:48;22.00;;;14.13;;
8319;SDS011;4197;42.130;24.746;2023-02-28T06:29:17;24.07;;;14.07;;
8319;SDS011;4197;42.130;24.746;2023-02-28T06:31:45;21.20;;;13.13;;
8319;SDS011;4197;42.130;24.746;2023-02-28T06:34:16;18.87;;;12.87;;
8319;SDS011;4197;42.130;24.746;2023-02-28T06:36:45;18.97;;;13.33;;
8319;SDS011;4197;42.130;24.746;2023-02-28T06:39:14;29.03;;;14.07;;
8319;SDS011;4197;42.130;24.746;2023-02-28T06:41:43;24.60;;;13.57;;
8319;SDS011;4197;42.130;24.746;2023-02-28T06:44:21;29.63;;;18.27;;
8319;SDS011;4197;42.130;24.746;2023-02-28T06:46:49;26.27;;;14.80;;
8319;SDS011;4197;42.130;24.746;2023-02-28T06:49:19;25.67;;;14.20;;
8319;SDS011;4197;42.130;24.746;2023-02-28T06:51:49;21.90;;;13.87;;
8319;SDS011;4197;42.130;24.746;2023-02-28T06:54:17;19.90;;;12.73;;
8319;SDS011;4197;42.130;24.746;2023-02-28T06:56:45;20.97;;;12.73;;
8319;SDS011;4197;42.130;24.746;2023-02-28T06:59:14;19.83;;;13.70;;
8319;SDS011;4197;42.130;24.746;2023-02-28T07:01:43;22.13;;;12.73;;
8319;SDS011;4197;42.130;24.746;2023-02-28T07:04:16;23.83;;;13.70;;
8319;SDS011;4197;42.130;24.746;2023-02-28T07:06:44;30.33;;;16.33;;
8319;SDS011;4197;42.130;24.746;2023-02-28T07:09:14;22.00;;;14.60;;
8319;SDS011;4197;42.130;24.746;2023-02-28T07:11:42;26.30;;;15.67;;
8319;SDS011;4197;42.130;24.746;2023-02-28T07:14:10;21.70;;;14.60;;
8319;SDS011;4197;42.130;24.746;2023-02-28T07:16:38;20.10;;;13.70;;
8319;SDS011;4197;42.130;24.746;2023-02-28T07:19:07;22.17;;;15.60;;
8319;SDS011;4197;42.130;24.746;2023-02-28T07:21:35;24.63;;;14.17;;
8319;SDS011;4197;42.130;24.746;2023-02-28T07:24:03;19.90;;;13.27;;
8319;SDS011;4197;42.130;24.746;2023-02-28T07:26:33;25.50;;;14.30;;
8319;SDS011;4197;42.130;24.746;2023-02-28T07:29:02;25.93;;;15.27;;
8319;SDS011;4197;42.130;24.746;2023-02-28T07:31:30;25.87;;;16.17;;
8319;SDS011;4197;42.130;24.746;2023-02-28T07:33:58;25.60;;;16.90;;
8319;SDS011;4197;42.130;24.746;2023-02-28T07:36:26;30.00;;;18.47;;
8319;SDS011;4197;42.130;24.746;2023-02-28T07:38:55;31.53;;;18.80;;
8319;SDS011;4197;42.130;24.746;2023-02-28T07:41:24;39.53;;;20.13;;
8319;SDS011;4197;42.130;24.746;2023-02-28T07:43:56;34.43;;;19.50;;
8319;SDS011;4197;42.130;24.746;2023-02-28T07:46:26;34.83;;;21.13;;
8319;SDS011;4197;42.130;24.746;2023-02-28T07:48:56;35.93;;;20.37;;
8319;SDS011;4197;42.130;24.746;2023-02-28T07:51:26;34.97;;;21.03;;
8319;SDS011;4197;42.130;24.746;2023-02-28T07:53:54;30.73;;;20.20;;
8319;SDS011;4197;42.130;24.746;2023-02-28T07:56:22;35.43;;;19.47;;
8319;SDS011;4197;42.130;24.746;2023-02-28T07:58:51;30.37;;;17.80;;
8319;SDS011;4197;42.130;24.746;2023-02-28T08:01:20;39.07;;;20.47;;
8319;SDS011;4197;42.130;24.746;2023-02-28T08:03:48;38.33;;;21.13;;
8319;SDS011;4197;42.130;24.746;2023-02-28T08:06:17;34.70;;;19.93;;
8319;SDS011;4197;42.130;24.746;2023-02-28T08:08:47;37.27;;;20.67;;
8319;SDS011;4197;42.130;24.746;2023-02-28T08:11:16;30.27;;;19.53;;
8319;SDS011;4197;42.130;24.746;2023-02-28T08:13:45;30.80;;;17.83;;
8319;SDS011;4197;42.130;24.746;2023-02-28T08:16:13;32.33;;;20.20;;
8319;SDS011;4197;42.130;24.746;2023-02-28T08:18:50;33.00;;;19.23;;
8319;SDS011;4197;42.130;24.746;2023-02-28T08:21:20;25.23;;;16.60;;
8319;SDS011;4197;42.130;24.746;2023-02-28T08:23:49;26.03;;;17.53;;
8319;SDS011;4197;42.130;24.746;2023-02-28T08:26:18;30.13;;;18.73;;
8319;SDS011;4197;42.130;24.746;2023-02-28T08:28:47;29.97;;;19.73;;
8319;SDS011;4197;42.130;24.746;2023-02-28T08:31:15;28.47;;;17.00;;
8319;SDS011;4197;42.130;24.746;2023-02-28T08:33:44;28.93;;;19.07;;
8319;SDS011;4197;42.130;24.746;2023-02-28T08:36:17;33.87;;;19.33;;
8319;SDS011;4197;42.130;24.746;2023-02-28T08:38:46;25.03;;;16.53;;
8319;SDS011;4197;42.130;24.746;2023-02-28T08:41:14;34.60;;;19.07;;
8319;SDS011;4197;42.130;24.746;2023-02-28T08:43:42;27.63;;;18.37;;
8319;SDS011;4197;42.130;24.746;2023-02-28T08:46:11;31.63;;;17.73;;
8319;SDS011;4197;42.130;24.746;2023-02-28T08:48:41;28.67;;;18.27;;
8319;SDS011;4197;42.130;24.746;2023-02-28T08:51:11;26.37;;;18.43;;
8319;SDS011;4197;42.130;24.746;2023-02-28T08:53:44;30.33;;;18.53;;
8319;SDS011;4197;42.130;24.746;2023-02-28T08:56:15;32.67;;;18.63;;
8319;SDS011;4197;42.130;24.746;2023-02-28T08:58:44;31.00;;;19.97;;
8319;SDS011;4197;42.130;24.746;2023-02-28T09:01:14;32.53;;;19.40;;
8319;SDS011;4197;42.130;24.746;2023-02-28T09:03:44;32.43;;;19.03;;
8319;SDS011;4197;42.130;24.746;2023-02-28T09:06:13;29.83;;;18.97;;
8319;SDS011;4197;42.130;24.746;2023-02-28T09:08:44;31.40;;;19.97;;
8319;SDS011;4197;42.130;24.746;2023-02-28T09:11:12;32.60;;;18.17;;
8319;SDS011;4197;42.130;24.746;2023-02-28T09:13:41;33.60;;;18.83;;
8319;SDS011;4197;42.130;24.746;2023-02-28T09:16:11;28.57;;;19.20;;
8319;SDS011;4197;42.130;24.746;2023-02-28T09:18:41;26.97;;;19.13;;
8319;SDS011;4197;42.130;24.746;2023-02-28T09:21:10;29.37;;;20.33;;
8319;SDS011;4197;42.130;24.746;2023-02-28T09:23:41;33.60;;;21.20;;
8319;SDS011;4197;42.130;24.746;2023-02-28T09:26:14;37.30;;;20.70;;
8319;SDS011;4197;42.130;24.746;2023-02-28T09:28:43;32.47;;;20.77;;
8319;SDS011;4197;42.130;24.746;2023-02-28T09:31:13;31.33;;;20.53;;
8319;SDS011;4197;42.130;24.746;2023-02-28T09:33:43;32.30;;;21.07;;
8319;SDS011;4197;42.130;24.746;2023-02-28T09:36:11;34.07;;;22.10;;
8319;SDS011;4197;42.130;24.746;2023-02-28T09:38:39;33.03;;;19.73;;
8319;SDS011;4197;42.130;24.746;2023-02-28T09:41:14;31.77;;;20.67;;
8319;SDS011;4197;42.130;24.746;2023-02-28T09:43:44;33.00;;;21.97;;
8319;SDS011;4197;42.130;24.746;2023-02-28T09:46:19;39.57;;;23.87;;
8319;SDS011;4197;42.130;24.746;2023-02-28T09:48:55;34.70;;;21.57;;
8319;SDS011;4197;42.130;24.746;2023-02-28T09:51:30;35.10;;;22.27;;
8319;SDS011;4197;42.130;24.746;2023-02-28T09:54:05;32.70;;;20.77;;
8319;SDS011;4197;42.130;24.746;2023-02-28T09:56:39;36.37;;;22.40;;
8319;SDS011;4197;42.130;24.746;2023-02-28T09:59:10;33.37;;;20.23;;
8319;SDS011;4197;42.130;24.746;2023-02-28T10:01:48;31.90;;;20.70;;
8319;SDS011;4197;42.130;24.746;2023-02-28T10:04:28;39.60;;;21.50;;
8319;SDS011;4197;42.130;24.746;2023-02-28T10:07:13;33.10;;;19.57;;
8319;SDS011;4197;42.130;24.746;2023-02-28T10:09:51;35.47;;;21.47;;
8319;SDS011;4197;42.130;24.746;2023-02-28T10:12:24;37.40;;;21.63;;
8319;SDS011;4197;42.130;24.746;2023-02-28T10:14:55;30.53;;;21.37;;
8319;SDS011;4197;42.130;24.746;2023-02-28T10:17:27;36.63;;;22.10;;
8319;SDS011;4197;42.130;24.746;2023-02-28T10:20:21;36.33;;;22.43;;
8319;SDS011;4197;42.130;24.746;2023-02-28T10:22:58;29.17;;;19.60;;
8319;SDS011;4197;42.130;24.746;2023-02-28T10:25:34;38.17;;;21.27;;
8319;SDS011;4197;42.130;24.746;2023-02-28T10:28:09;33.17;;;23.07;;
8319;SDS011;4197;42.130;24.746;2023-02-28T10:30:40;41.40;;;22.07;;
8319;SDS011;4197;42.130;24.746;2023-02-28T10:33:15;39.80;;;21.70;;
8319;SDS011;4197;42.130;24.746;2023-02-28T10:35:49;38.13;;;23.83;;
8319;SDS011;4197;42.130;24.746;2023-02-28T10:38:18;37.23;;;23.90;;
8319;SDS011;4197;42.130;24.746;2023-02-28T10:40:48;38.27;;;23.70;;
8319;SDS011;4197;42.130;24.746;2023-02-28T10:43:21;41.87;;;25.87;;
8319;SDS011;4197;42.130;24.746;2023-02-28T10:45:52;38.20;;;24.30;;
8319;SDS011;4197;42.130;24.746;2023-02-28T10:48:36;40.13;;;23.07;;
8319;SDS011;4197;42.130;24.746;2023-02-28T10:51:07;40.17;;;24.10;;
8319;SDS011;4197;42.130;24.746;2023-02-28T10:53:39;33.40;;;23.07;;
8319;SDS011;4197;42.130;24.746;2023-02-28T10:56:26;36.17;;;23.97;;
8319;SDS011;4197;42.130;24.746;2023-02-28T10:58:58;44.27;;;24.97;;
8319;SDS011;4197;42.130;24.746;2023-02-28T11:01:35;34.13;;;23.43;;
8319;SDS011;4197;42.130;24.746;2023-02-28T11:04:16;42.63;;;23.80;;
8319;SDS011;4197;42.130;24.746;2023-02-28T11:06:48;37.83;;;24.27;;
8319;SDS011;4197;42.130;24.746;2023-02-28T11:09:25;34.03;;;22.47;;
8319;SDS011;4197;42.130;24.746;2023-02-28T11:11:56;33.83;;;23.37;;
8319;SDS011;4197;42.130;24.746;2023-02-28T11:14:27;35.07;;;22.03;;
8319;SDS011;4197;42.130;24.746;2023-02-28T11:16:58;38.17;;;22.53;;
8319;SDS011;4197;42.130;24.746;2023-02-28T11:19:31;39.37;;;22.67;;
8319;SDS011;4197;42.130;24.746;2023-02-28T11:22:06;36.33;;;23.90;;
8319;SDS011;4197;42.130;24.746;2023-02-28T11:24:36;38.23;;;24.63;;
8319;SDS011;4197;42.130;24.746;2023-02-28T11:27:14;40.20;;;24.93;;
8319;SDS011;4197;42.130;24.746;2023-02-28T11:29:54;39.63;;;25.00;;
8319;SDS011;4197;42.130;24.746;2023-02-28T11:32:23;35.80;;;24.37;;
8319;SDS011;4197;42.130;24.746;2023-02-28T11:35:02;39.80;;;25.63;;
8319;SDS011;4197;42.130;24.746;2023-02-28T11:37:32;45.47;;;25.60;;
8319;SDS011;4197;42.130;24.746;2023-02-28T11:40:01;47.53;;;24.87;;
8319;SDS011;4197;42.130;24.746;2023-02-28T11:42:35;42.97;;;23.87;;
8319;SDS011;4197;42.130;24.746;2023-02-28T11:45:21;40.70;;;24.93;;
8319;SDS011;4197;42.130;24.746;2023-02-28T11:47:59;43.63;;;24.67;;
8319;SDS011;4197;42.130;24.746;2023-02-28T11:50:42;41.70;;;26.23;;
8319;SDS011;4197;42.130;24.746;2023-02-28T11:53:22;38.67;;;26.30;;
8319;SDS011;4197;42.130;24.746;2023-02-28T11:56:12;41.13;;;24.87;;
8319;SDS011;4197;42.130;24.746;2023-02-28T11:58:49;35.13;;;23.97;;
8319;SDS011;4197;42.130;24.746;2023-02-28T12:01:32;40.37;;;27.33;;
8319;SDS011;4197;42.130;24.746;2023-02-28T12:04:14;40.40;;;28.03;;
8319;SDS011;4197;42.130;24.746;2023-02-28T12:06:54;44.00;;;28.40;;
8319;SDS011;4197;42.130;24.746;2023-02-28T12:09:32;40.93;;;28.97;;
8319;SDS011;4197;42.130;24.746;2023-02-28T12:12:16;49.43;;;30.97;;
8319;SDS011;4197;42.130;24.746;2023-02-28T12:14:58;47.60;;;31.30;;
8319;SDS011;4197;42.130;24.746;2023-02-28T12:17:50;44.83;;;29.87;;
8319;SDS011;4197;42.130;24.746;2023-02-28T12:20:32;53.03;;;31.13;;
8319;SDS011;4197;42.130;24.746;2023-02-28T12:23:10;46.70;;;29.23;;
8319;SDS011;4197;42.130;24.746;2023-02-28T12:26:04;49.80;;;31.93;;
8319;SDS011;4197;42.130;24.746;2023-02-28T12:28:40;51.60;;;34.53;;
8319;SDS011;4197;42.130;24.746;2023-02-28T12:31:15;49.93;;;32.20;;
8319;SDS011;4197;42.130;24.746;2023-02-28T12:33:52;50.17;;;30.30;;
8319;SDS011;4197;42.130;24.746;2023-02-28T12:36:25;48.60;;;32.23;;
8319;SDS011;4197;42.130;24.746;2023-02-28T12:38:56;48.50;;;32.40;;
8319;SDS011;4197;42.130;24.746;2023-02-28T12:41:33;51.23;;;32.83;;
8319;SDS011;4197;42.130;24.746;2023-02-28T12:44:07;56.67;;;34.83;;
8319;SDS011;4197;42.130;24.746;2023-02-28T12:46:45;45.07;;;30.10;;
8319;SDS011;4197;42.130;24.746;2023-02-28T12:49:19;50.03;;;30.93;;
8319;SDS011;4197;42.130;24.746;2023-02-28T12:51:53;51.37;;;32.67;;
8319;SDS011;4197;42.130;24.746;2023-02-28T12:54:23;51.40;;;31.60;;
8319;SDS011;4197;42.130;24.746;2023-02-28T12:57:00;48.33;;;33.17;;
8319;SDS011;4197;42.130;24.746;2023-02-28T12:59:35;58.07;;;35.67;;
8319;SDS011;4197;42.130;24.746;2023-02-28T13:02:17;54.47;;;32.70;;
8319;SDS011;4197;42.130;24.746;2023-02-28T13:05:00;43.30;;;29.70;;
8319;SDS011;4197;42.130;24.746;2023-02-28T13:07:49;46.80;;;29.50;;
8319;SDS011;4197;42.130;24.746;2023-02-28T13:10:42;48.70;;;30.30;;
8319;SDS011;4197;42.130;24.746;2023-02-28T13:13:15;49.93;;;32.17;;
8319;SDS011;4197;42.130;24.746;2023-02-28T13:16:01;44.37;;;29.97;;
8319;SDS011;4197;42.130;24.746;2023-02-28T13:18:34;51.17;;;31.93;;
8319;SDS011;4197;42.130;24.746;2023-02-28T13:21:08;45.60;;;30.20;;
8319;SDS011;4197;42.130;24.746;2023-02-28T13:23:56;62.30;;;34.87;;
8319;SDS011;4197;42.130;24.746;2023-02-28T13:29:51;55.33;;;34.87;;
8319;SDS011;4197;42.130;24.746;2023-02-28T13:38:21;53.13;;;31.50;;
8319;SDS011;4197;42.130;24.746;2023-02-28T13:40:52;49.73;;;31.07;;
8319;SDS011;4197;42.130;24.746;2023-02-28T13:43:20;49.60;;;32.37;;
8319;SDS011;4197;42.130;24.746;2023-02-28T13:46:12;57.90;;;34.87;;
8319;SDS011;4197;42.130;24.746;2023-02-28T13:48:41;53.63;;;32.63;;
8319;SDS011;4197;42.130;24.746;2023-02-28T13:51:35;61.23;;;38.17;;
8319;SDS011;4197;42.130;24.746;2023-02-28T13:54:15;57.80;;;35.53;;
8319;SDS011;4197;42.130;24.746;2023-02-28T13:56:54;56.13;;;35.13;;
8319;SDS011;4197;42.130;24.746;2023-02-28T13:59:35;55.73;;;36.53;;
8319;SDS011;4197;42.130;24.746;2023-02-28T14:05:13;52.07;;;33.37;;
8319;SDS011;4197;42.130;24.746;2023-02-28T14:07:45;46.00;;;29.83;;
8319;SDS011;4197;42.130;24.746;2023-02-28T14:10:25;47.10;;;30.03;;
8319;SDS011;4197;42.130;24.746;2023-02-28T14:12:58;42.97;;;29.67;;
8319;SDS011;4197;42.130;24.746;2023-02-28T14:15:39;42.73;;;29.40;;
8319;SDS011;4197;42.130;24.746;2023-02-28T14:18:17;41.70;;;27.40;;
8319;SDS011;4197;42.130;24.746;2023-02-28T14:20:54;38.33;;;26.10;;
8319;SDS011;4197;42.130;24.746;2023-02-28T14:23:39;39.63;;;26.47;;
8319;SDS011;4197;42.130;24.746;2023-02-28T14:26:32;38.30;;;25.97;;
8319;SDS011;4197;42.130;24.746;2023-02-28T14:29:26;39.27;;;26.30;;
8319;SDS011;4197;42.130;24.746;2023-02-28T14:32:10;43.03;;;25.20;;
8319;SDS011;4197;42.130;24.746;2023-02-28T14:34:49;35.00;;;25.70;;
8319;SDS011;4197;42.130;24.746;2023-02-28T14:37:30;36.67;;;27.50;;
8319;SDS011;4197;42.130;24.746;2023-02-28T14:40:02;44.40;;;29.63;;
8319;SDS011;4197;42.130;24.746;2023-02-28T14:42:35;36.73;;;27.20;;
8319;SDS011;4197;42.130;24.746;2023-02-28T14:45:16;37.17;;;25.80;;
8319;SDS011;4197;42.130;24.746;2023-02-28T14:47:46;31.00;;;22.30;;
8319;SDS011;4197;42.130;24.746;2023-02-28T14:50:18;31.33;;;22.43;;
8319;SDS011;4197;42.130;24.746;2023-02-28T14:52:51;34.07;;;25.47;;
8319;SDS011;4197;42.130;24.746;2023-02-28T14:55:24;32.03;;;23.67;;
8319;SDS011;4197;42.130;24.746;2023-02-28T14:57:56;31.77;;;22.30;;
8319;SDS011;4197;42.130;24.746;2023-02-28T15:00:27;27.90;;;20.83;;
8319;SDS011;4197;42.130;24.746;2023-02-28T15:02:58;29.57;;;21.83;;
8319;SDS011;4197;42.130;24.746;2023-02-28T15:05:29;31.67;;;21.57;;
8319;SDS011;4197;42.130;24.746;2023-02-28T15:08:06;31.23;;;21.83;;
8319;SDS011;4197;42.130;24.746;2023-02-28T15:10:39;34.37;;;22.03;;
8319;SDS011;4197;42.130;24.746;2023-02-28T15:13:12;34.40;;;22.40;;
8319;SDS011;4197;42.130;24.746;2023-02-28T15:15:45;29.93;;;22.30;;
8319;SDS011;4197;42.130;24.746;2023-02-28T15:18:36;28.80;;;21.83;;
8319;SDS011;4197;42.130;24.746;2023-02-28T15:21:15;31.07;;;20.40;;
8319;SDS011;4197;42.130;24.746;2023-02-28T15:23:45;45.50;;;33.63;;
8319;SDS011;4197;42.130;24.746;2023-02-28T15:26:17;35.70;;;22.07;;
8319;SDS011;4197;42.130;24.746;2023-02-28T15:28:50;34.47;;;23.60;;
8319;SDS011;4197;42.130;24.746;2023-02-28T15:31:23;34.20;;;23.47;;